Αρχική σελίδα
METAR-TAF:

METAR-TAF

Αεροδρόμια :

Juazeiro do Norte, Σεάρα, Βραζιλία

γεωγραφικό πλάτος: 07-13-06S, γεωγραφικό μήκος: 039-16-18W, υψόμετρο: 424 μ

Παρών καιρός

Η αναφορά έγινε 59 λεπτά πριν, στις 15:00 UTC
Άνεμος 9 kt από Ν/NA
Θερμοκρασία 27°C
Υγρασία 66%
Πίεση 1018 hPa
Ορατότητα 10 χλμ και άνω
Λίγα νέφη σε ύψος 2200 πόδια

METAR: SBJU 151500Z 15009KT 9999 FEW022 27/20 Q1018

Χρόνος: 12:59 (15:59 UTC)


TAF: λείπει

Μετεωρολογικές αναφορές και προγνώσεις για περισσότερα από 4000 αεροδρόμια (δελτία METAR και TAF).

Οι διαθέσιμοι σταθμοί απεικονίζονται στο χάρτη με κίτρινες και κόκκινες κουκκίδες.

Μετακινήστε το ποντίκι πάνω από τις κουκκίδες για να δείτε το όνομα του σταθμού.

Στη συνέχεια, κάντε κλικ για να δείτε τις μετεωρολογικές αναφορές και τις προγνώσεις καιρού.

Για να αλλάξετε το χάρτη: κάντε κλικ στα πράσινα κουμπιά με τον μαύρο σταυρό για να ζουμάρετε, στο πράσινο κουμπί με την παύλα για να αφαιρέσετε το ζουμ ή στα πράσινα βέλη για να αντιπαραβάλλετε χάρτες.


METAR-TAF: